Latest Weather Observations for Montague Island

IDN60801

Issued at 6:53 pm EDT Wednesday 29 January 2020 (issued every 10 minutes, with the page automatically refreshed every 10 minutes)

About weather observations | Map of weather stations | Latest weather observations for NSW | Other Formats
Station Details ID: 069017 Name: MONTAGUE ISLAND LIGHTHOUSE Lat: -36.25 Lon: 150.23 Height: 52.0 m
Data from the previous 72 hours. | See also: Recent months at Montague Island
Date/Time
EDT
Temp
°C
App
Temp
°C
Dew
Point
°C
Rel
Hum
%
Delta-T
°C
Wind Press
QNH
hPa
Press
MSL
hPa
Rain since
9am
mm
Dir  Spd
km/h
Gust
km/h
Spd
kts
Gust
kts
29/06:30pm 22.3 22.4 18.3 78 2.5 E 15 17 8 9 1016.8 1016.6 0.0
29/06:00pm 22.3 22.6 17.9 76 2.7 E 13 17 7 9 1016.8 1016.6 0.0
29/05:30pm 22.6 23.1 17.5 73 3.2 E 11 17 6 9 1016.6 1016.4 0.0
29/05:00pm 22.6 22.7 17.5 73 3.2 E 13 15 7 8 1016.8 1016.6 0.0
29/04:30pm 22.6 22.4 17.5 73 3.2 ESE 15 17 8 9 1016.8 1016.6 0.0
29/04:00pm 22.5 21.7 17.0 71 3.4 ESE 17 22 9 12 1017.1 1016.9 0.0
29/03:30pm 22.8 21.7 17.7 73 3.2 ESE 20 24 11 13 1016.8 1016.6 0.0
29/03:00pm 22.7 21.3 18.0 75 2.9 ESE 22 26 12 14 1016.8 1016.6 0.0
29/02:30pm 23.1 22.1 17.6 71 3.4 ESE 19 24 10 13 1016.9 1016.7 0.0
29/02:00pm 23.3 22.7 18.4 74 3.1 ESE 19 22 10 12 1016.9 1016.7 0.0
29/01:30pm 23.4 22.9 18.7 75 3.0 ESE 19 22 10 12 1017.1 1016.9 0.0
29/01:00pm 23.4 23.0 18.9 76 2.9 E 19 22 10 12 1017.0 1016.8 0.0
29/12:30pm 23.7 23.8 18.4 72 3.3 E 15 19 8 10 1017.0 1016.8 0.0
29/12:00pm 23.6 25.1 18.9 75 3.0 E 9 13 5 7 1017.1 1016.9 0.0
29/11:30am 22.7 24.4 18.5 77 2.6 E 7 9 4 5 1017.3 1017.1 0.0
29/11:00am 22.8 24.4 18.3 76 2.8 ESE 7 11 4 6 1017.3 1017.1 0.0
29/10:30am 22.4 24.2 18.2 77 2.6 SE 6 11 3 6 1017.2 1017.0 0.0
29/10:00am 22.1 24.2 18.1 78 2.5 S 4 7 2 4 1017.1 1016.9 0.0
29/09:30am 21.7 23.7 18.7 83 1.9 SW 6 9 3 5 1017.0 1016.8 0.0
29/09:00am 20.6 22.4 18.4 87 1.4 SW 6 9 3 5 1017.2 1017.0 0.0
29/08:30am 20.5 22.2 18.6 89 1.2 SW 7 11 4 6 1016.8 1016.6 0.0
29/08:00am 20.3 22.1 18.8 91 0.9 WSW 7 9 4 5 1016.6 1016.4 0.0
29/07:30am 20.0 21.8 18.7 92 0.8 WSW 7 11 4 6 1016.1 1015.9 0.0
29/07:00am 19.5 20.7 18.2 92 0.8 SW 9 11 5 6 1016.0 1015.8 0.0
29/06:30am 19.4 20.5 17.9 91 0.9 SW 9 11 5 6 1015.8 1015.6 0.0
29/06:00am 19.5 21.1 17.8 90 1.0 WSW 6 9 3 5 1015.6 1015.4 0.0
29/05:30am 19.7 21.3 17.8 89 1.2 WSW 6 7 3 4 1015.6 1015.4 0.0
29/05:00am 20.0 21.6 17.8 87 1.4 SW 6 7 3 4 1015.5 1015.3 0.0
29/04:30am 19.9 21.3 17.3 85 1.6 S 6 9 3 5 1015.5 1015.3 0.0
29/04:00am 20.0 21.8 17.4 85 1.6 SSE 4 7 2 4 1015.5 1015.3 0.0
29/03:30am 19.8 21.2 17.8 88 1.2 SSE 7 11 4 6 1015.5 1015.3 0.0
29/03:00am 19.6 20.6 17.7 89 1.2 S 9 11 5 6 1015.9 1015.7 0.0
29/02:30am 19.5 20.8 17.6 89 1.2 SSW 7 11 4 6 1015.8 1015.6 0.0
29/02:00am 19.5 20.4 17.6 89 1.2 SW 9 13 5 7 1015.9 1015.7 0.0
29/01:30am 19.7 20.7 17.7 88 1.2 SW 9 13 5 7 1016.2 1016.0 0.0
29/01:00am 19.6 20.4 17.4 87 1.3 SW 9 13 5 7 1016.5 1016.3 0.0
29/12:30am 19.8 20.4 17.6 87 1.4 SSW 11 15 6 8 1016.6 1016.4 0.0
29/12:00am 20.0 20.2 17.6 86 1.5 SSW 13 19 7 10 1016.7 1016.5 0.0
 
Date/Time
EDT
Temp
°C
App
Temp
°C
Dew
Point
°C
Rel
Hum
%
Delta-T
°C
Wind Press
QNH
hPa
Press
MSL
hPa
Rain since
9am
mm
Dir  Spd
km/h
Gust
km/h
Spd
kts
Gust
kts
28/11:30pm 20.3 19.9 17.1 82 2.0 SSW 15 20 8 11 1016.6 1016.4 0.0
28/11:00pm 20.3 20.2 16.9 81 2.1 S 13 20 7 11 1016.4 1016.2 0.0
28/10:30pm 20.4 19.2 17.0 81 2.1 S 19 24 10 13 1016.4 1016.2 0.0
28/10:00pm 20.6 19.3 17.2 81 2.1 SSW 20 24 11 13 1016.4 1016.2 0.0
28/09:30pm 20.7 19.7 17.5 82 2.0 SSW 19 26 10 14 1016.0 1015.8 0.0
28/09:00pm 20.7 19.9 17.9 84 1.7 S 19 24 10 13 1015.6 1015.4 0.0
28/08:30pm 21.0 20.4 18.4 85 1.6 S 19 22 10 12 1015.4 1015.2 0.0
28/08:00pm 20.9 19.0 18.5 86 1.5 SSE 26 30 14 16 1014.9 1014.7 0.0
28/07:30pm 21.1 19.0 18.9 87 1.4 SSE 28 32 15 17 1014.4 1014.2 0.0
28/07:00pm 21.2 19.0 18.6 85 1.6 SSE 28 33 15 18 1013.6 1013.4 0.0
28/06:30pm 21.7 19.5 18.7 83 1.9 S 28 33 15 18 1013.3 1013.1 0.0
28/06:00pm 21.5 19.9 18.3 82 2.0 SSE 24 30 13 16 1012.9 1012.8 0.0
28/05:30pm 21.6 19.0 18.6 83 1.9 SSE 30 35 16 19 1012.7 1012.6 0.0
28/05:00pm 21.2 17.5 18.4 84 1.8 SSE 35 43 19 23 1012.4 1012.3 0.0
28/04:30pm 20.8 16.5 18.6 87 1.4 SSE 39 44 21 24 1012.4 1012.3 0.0
28/04:00pm 20.6 16.3 18.7 89 1.2 S 39 50 21 27 1012.2 1012.1 0.0
28/03:30pm 20.9 16.4 19.0 89 1.2 S 41 48 22 26 1012.0 1011.9 0.0
28/03:00pm 21.5 18.7 19.4 88 1.3 S 33 44 18 24 1012.0 1011.9 0.0
28/02:30pm 21.4 18.6 19.5 89 1.2 S 33 41 18 22 1012.2 1012.1 0.0
28/02:00pm 21.2 17.6 19.3 89 1.2 S 37 44 20 24 1012.3 1012.2 0.0
28/01:30pm 21.4 18.9 19.7 90 1.1 S 32 39 17 21 1012.4 1012.3 0.0
28/01:00pm 21.4 18.4 19.9 91 1.0 S 35 43 19 23 1012.4 1012.3 0.0
28/12:30pm 21.4 18.4 19.9 91 1.0 S 35 41 19 22 1012.5 1012.4 0.0
28/12:00pm 21.6 19.1 20.1 91 1.0 S 33 41 18 22 1012.5 1012.4 0.0
28/11:30am 22.1 20.3 20.4 90 1.1 S 30 35 16 19 1012.5 1012.4 0.0
28/11:00am 22.3 21.8 20.0 87 1.5 SSW 22 28 12 15 1012.6 1012.5 0.0
28/10:30am 22.4 22.8 19.8 85 1.7 S 17 20 9 11 1012.4 1012.3 0.0
28/10:00am 22.1 22.7 19.5 85 1.7 S 15 17 8 9 1012.6 1012.5 0.0
28/09:30am 21.8 21.7 19.5 87 1.5 SSW 19 22 10 12 1012.9 1012.8 0.0
28/09:00am 21.8 22.0 19.4 86 1.5 SSW 17 20 9 11 1013.1 1012.9 0.0
28/08:30am 21.6 22.1 19.2 86 1.5 SW 15 19 8 10 1012.8 1012.7 0.0
28/08:00am 21.6 22.1 19.3 87 1.5 SW 15 19 8 10 1012.6 1012.5 0.0
28/07:30am 21.2 22.3 19.7 91 1.0 SW 13 17 7 9 1012.5 1012.4 0.0
28/07:00am 20.6 20.1 19.1 91 0.9 SW 20 24 11 13 1012.8 1012.7 0.0
28/06:30am 20.4 20.0 18.9 91 0.9 SW 19 22 10 12 1012.3 1012.2 0.0
28/06:00am 20.4 19.5 19.1 92 0.8 SW 22 26 12 14 1012.4 1012.3 0.0
28/05:30am 20.4 19.2 19.2 93 0.8 SW 24 30 13 16 1012.4 1012.3 0.0
28/05:00am 20.5 19.3 19.3 93 0.8 SW 24 30 13 16 1012.4 1012.3 0.0
28/04:30am 20.4 19.2 19.2 93 0.8 SSW 24 32 13 17 1012.4 1012.3 0.0
28/04:00am 20.6 19.2 19.6 94 0.6 SSW 26 35 14 19 1013.1 1012.9 0.0
28/03:30am 20.6 19.2 19.6 94 0.6 SSW 26 33 14 18 1013.1 1012.9 0.0
28/03:00am 20.5 17.9 19.5 94 0.6 SSW 32 39 17 21 1013.3 1013.1 0.0
28/02:30am 20.5 18.4 19.7 95 0.5 SSW 30 39 16 21 1013.4 1013.2 0.0
28/02:00am 20.3 18.1 19.6 96 0.4 SW 30 35 16 19 1013.6 1013.4 0.0
28/01:30am 20.5 19.6 19.8 96 0.4 SW 24 32 13 17 1013.7 1013.5 0.0
28/01:00am 20.7 20.0 20.2 97 0.3 SSW 24 32 13 17 1013.8 1013.6 0.0
28/12:30am 21.0 19.2 20.3 96 0.5 SSW 30 37 16 20 1014.2 1014.0 0.0
28/12:00am 21.4 20.0 20.4 94 0.6 SW 28 33 15 18 1014.5 1014.3 0.0
 
Date/Time
EDT
Temp
°C
App
Temp
°C
Dew
Point
°C
Rel
Hum
%
Delta-T
°C
Wind Press
QNH
hPa
Press
MSL
hPa
Rain since
9am
mm
Dir  Spd
km/h
Gust
km/h
Spd
kts
Gust
kts
27/11:30pm 21.3 20.6 20.3 94 0.6 SW 24 30 13 16 1014.4 1014.2 0.0
27/11:00pm 21.3 21.6 20.3 94 0.6 SW 19 26 10 14 1014.6 1014.4 0.0
27/10:30pm 21.7 22.9 20.7 94 0.6 SSW 15 20 8 11 1014.9 1014.7 0.0
27/10:00pm 21.7 21.9 20.5 93 0.8 SSW 20 28 11 15 1015.0 1014.8 0.0
27/09:30pm 21.7 21.2 20.7 94 0.6 S 24 28 13 15 1014.7 1014.5 0.0
27/09:00pm 21.3 20.7 20.6 96 0.5 SSW 24 30 13 16 1014.8 1014.6 0.0
27/08:30pm 21.2 21.0 20.5 96 0.5 SW 22 28 12 15 1014.3 1014.1 0.0
27/08:00pm 21.4 21.7 20.7 96 0.5 SW 20 26 11 14 1014.2 1014.0 0.0
27/07:30pm 21.3 20.7 20.6 96 0.5 S 24 28 13 15 1013.6 1013.4 0.0
27/07:00pm 21.1 20.2 20.6 97 0.3 S 26 32 14 17 1013.2 1013.0 0.0
27/06:56pm 21.0 20.0 20.5 97 0.3 S 26 32 14 17 1013.1 1012.9 0.0
27/06:30pm 21.6 18.6 20.6 94 0.6 SSE 37 43 20 23 1012.7 1012.6 0.0
27/06:00pm 23.1 22.7 21.0 88 1.4 SSE 24 28 13 15 1012.7 1012.6 0.0
27/05:30pm 23.3 23.5 20.6 85 1.8 S 20 24 11 13 1012.4 1012.3 0.0
27/05:00pm 23.3 24.1 20.6 85 1.8 S 17 20 9 11 1012.0 1011.9 0.0
27/04:30pm 23.1 23.5 20.6 86 1.6 SE 19 22 10 12 1011.6 1011.5 0.0
27/04:00pm 23.1 23.7 20.2 84 1.9 SE 17 20 9 11 1011.8 1011.7 0.0
27/03:30pm 22.9 23.3 19.9 83 1.9 SE 17 20 9 11 1012.2 1012.1 0.0
27/03:00pm 23.8 24.7 19.3 76 2.9 E 13 19 7 10 1012.1 1012.0 0.0
27/02:30pm 23.9 24.5 19.4 76 2.9 ENE 15 20 8 11 1012.2 1012.1 0.0
27/02:00pm 23.7 24.8 19.6 78 2.6 ENE 13 19 7 10 1012.7 1012.6 0.0
27/01:30pm 23.5 24.0 19.2 77 2.7 ENE 15 20 8 11 1013.1 1012.9 0.0
27/01:00pm 23.6 23.2 18.9 75 3.0 ENE 19 24 10 13 1013.3 1013.1 0.0
27/12:30pm 23.2 23.1 18.7 76 2.8 ENE 17 20 9 11 1013.9 1013.7 0.0
27/12:00pm 22.9 22.9 18.2 75 2.9 ENE 15 19 8 10 1014.6 1014.4 0.0
27/11:30am 22.5 22.6 18.3 77 2.6 NE 15 17 8 9 1014.8 1014.6 0.0
27/11:00am 22.2 22.9 18.0 77 2.6 NE 11 15 6 8 1015.0 1014.8 0.0
27/10:30am 21.7 23.1 17.9 79 2.4 NE 7 9 4 5 1015.2 1015.0 0.0
27/10:00am 21.6 23.6 17.8 79 2.4 NE 4 7 2 4 1015.2 1015.0 0.0
27/09:30am 21.4 23.7 17.8 80 2.2 NNW 2 6 1 3 1015.4 1015.2 0.0
27/09:00am 21.1 22.6 17.5 80 2.2 WSW 6 7 3 4 1015.7 1015.5 0.0
27/08:30am 21.0 22.5 17.6 81 2.1 SW 6 7 3 4 1015.9 1015.7 0.0
27/08:00am 20.6 22.3 17.2 81 2.1 SW 4 6 2 3 1015.9 1015.7 0.0
27/07:30am 20.3 21.7 17.3 83 1.8 SSW 6 7 3 4 1015.7 1015.5 0.0
27/07:00am 19.9 20.7 17.3 85 1.6 SSW 9 13 5 7 1015.8 1015.6 0.0
27/06:30am 19.9 20.8 17.5 86 1.5 SSW 9 13 5 7 1015.6 1015.4 0.0
27/06:00am 19.7 19.8 17.5 87 1.3 SW 13 17 7 9 1015.4 1015.2 0.0
27/05:30am 19.8 19.6 17.6 87 1.4 SSW 15 19 8 10 1015.3 1015.1 0.0
27/05:00am 19.7 19.2 17.7 88 1.2 SSW 17 20 9 11 1015.0 1014.8 0.0
27/04:30am 19.8 18.7 17.8 88 1.2 SW 20 24 11 13 1015.0 1014.8 0.0
27/04:00am 19.8 18.6 17.6 87 1.4 SW 20 24 11 13 1014.8 1014.6 0.0
27/03:30am 19.8 18.3 17.8 88 1.2 SW 22 28 12 15 1014.8 1014.6 0.0
27/03:00am 19.7 18.2 17.7 88 1.2 SW 22 28 12 15 1015.0 1014.8 0.0
27/02:30am 20.1 18.3 17.9 87 1.4 SW 24 30 13 16 1015.4 1015.2 0.0
27/02:00am 20.4 18.5 17.6 84 1.7 SSW 24 30 13 16 1015.4 1015.2 0.0
27/01:30am 20.3 17.2 17.5 84 1.7 SSW 30 35 16 19 1015.6 1015.4 0.0
27/01:00am 20.5 18.8 18.1 86 1.5 SSW 24 32 13 17 1015.8 1015.6 0.0
27/12:30am 20.4 18.7 18.0 86 1.5 S 24 28 13 15 1016.2 1016.0 0.0
27/12:00am 20.3 18.9 17.9 86 1.5 S 22 28 12 15 1016.3 1016.1 0.0
 
Date/Time
EDT
Temp
°C
App
Temp
°C
Dew
Point
°C
Rel
Hum
%
Delta-T
°C
Wind Press
QNH
hPa
Press
MSL
hPa
Rain since
9am
mm
Dir  Spd
km/h
Gust
km/h
Spd
kts
Gust
kts
26/11:30pm 20.5 18.4 18.1 86 1.5 SSE 26 30 14 16 1016.5 1016.3 0.0
26/11:00pm 20.4 17.1 18.0 86 1.5 SSE 32 37 17 20 1016.4 1016.2 0.0
26/10:30pm 20.6 16.6 18.4 87 1.4 SSE 37 43 20 23 1016.4 1016.2 0.0
26/10:00pm 20.7 16.0 18.6 88 1.3 SSE 41 48 22 26 1016.2 1016.0 0.0
26/09:30pm 20.9 15.2 18.5 86 1.5 SSE 46 56 25 30 1015.6 1015.4 0.0
26/09:00pm 21.4 14.8 17.2 77 2.6 SE 48 56 26 30 1015.0 1014.8 0.0
26/08:30pm 21.7 16.1 17.5 77 2.6 SSE 43 50 23 27 1015.0 1014.8 0.0
26/08:00pm 21.7 16.6 18.7 83 1.9 SSE 43 52 23 28 1014.2 1014.0 0.0
26/07:30pm 21.9 18.4 19.5 86 1.5 SSE 37 46 20 25 1013.6 1013.4 0.0
26/07:00pm 22.4 20.5 20.1 87 1.5 S 30 39 16 21 1012.8 1012.7 0.0

Other formats

Comma delimited format used in spreadsheet applications
http://www.bom.gov.au/fwo/IDN60801/IDN60801.94939.axf

JavaScript Object Notation format (JSON) in row-major order
http://www.bom.gov.au/fwo/IDN60801/IDN60801.94939.json

Data quality

Most of these data are generated automatically and are frequently updated. Quality checks on data are not normally performed. It is possible for incorrect values to appear. Refer to information at About Latest Weather Observations and please check the disclaimer before using these data.